Latest Weather Observations for Gympie

IDQ60801

Issued at 6:32 pm EST Saturday 13 February 2016 (issued every 30 minutes, with the page automatically refreshed every 10 minutes)

About weather observations | Map of weather stations | Latest weather observations for QLD | Other Formats
Station Details ID: 040093 Name: GYMPIE Lat: -26.18 Lon: 152.64 Height: 64.5 m
Data from the previous 72 hours. | See also: Recent months at Gympie
Date/Time
EST
Temp
°C
App
Temp
°C
Dew
Point
Rel
Hum
%
Delta-T
°C
Wind Press
QNH
hPa
Press
MSL
hPa
Rain
since 9 am
mm
Dir
 
Spd
km/h
Gust
km/h
Spd
kts
Gust
kts
13/06:30pm 24.5 25.3 17.2 63 4.5 SSE 9 13 5 7 1009.1 1008.7 0.0
13/06:00pm 25.2 25.2 17.1 60 5.0 SSE 13 24 7 13 1008.8 1008.4 0.0
13/05:30pm 25.2 25.6 18.2 65 4.4 SSE 13 28 7 15 1008.8 1008.4 0.0
13/05:00pm 24.9 26.8 19.7 73 3.4 SSE 9 17 5 9 1008.8 1008.4 0.0
13/04:30pm 24.6 26.8 20.3 77 2.8 SSE 9 15 5 8 1008.9 1008.5 0.0
13/04:00pm 24.1 27.3 21.2 84 1.9 SE 6 9 3 5 1009.0 1008.6 0.0
13/03:30pm 23.3 25.8 21.0 87 1.5 SSE 9 15 5 8 1009.0 1008.6 0.0
13/03:00pm 23.7 24.8 20.4 82 2.2 S 15 26 8 14 1009.0 1008.6 0.0
13/02:30pm 23.5 24.9 20.4 83 2.0 S 13 22 7 12 1008.9 1008.5 0.0
13/02:00pm 24.2 24.3 19.9 77 2.8 S 19 32 10 17 1009.1 1008.7 0.0
13/01:30pm 25.0 24.8 19.4 71 3.6 SSE 19 32 10 17 1009.3 1008.9 0.0
13/01:00pm 24.9 25.0 19.9 74 3.2 SSE 19 33 10 18 1009.3 1008.9 0.0
13/12:30pm 26.6 26.5 19.5 65 4.6 SSE 19 30 10 16 1009.1 1008.7 0.0
13/12:00pm 27.1 26.5 19.7 64 4.8 SSE 22 37 12 20 1009.3 1008.9 0.0
13/11:30am 26.9 26.7 19.3 63 4.9 SSE 19 35 10 19 1009.6 1009.2 0.0
13/11:00am 27.3 28.6 20.1 64 4.7 S 13 24 7 13 1009.7 1009.3 0.0
13/10:30am 26.7 26.8 19.1 63 4.9 S 17 30 9 16 1009.9 1009.5 0.0
13/10:00am 26.0 26.5 19.2 66 4.4 S 15 28 8 15 1009.9 1009.5 0.0
13/09:30am 25.1 25.5 19.0 69 3.9 SSE 15 24 8 13 1010.2 1009.8 0.0
13/09:00am 24.7 24.2 18.6 69 3.9 S 19 32 10 17 1010.6 1010.2 2.2
13/08:30am 24.4 23.9 18.6 70 3.7 SSE 19 32 10 17 1010.8 1010.4 2.2
13/08:00am 23.9 23.2 18.3 71 3.5 SSE 19 33 10 18 1010.5 1010.1 2.2
13/07:30am 23.6 23.8 18.5 73 3.2 S 15 24 8 13 1010.7 1010.3 2.2
13/07:00am 22.9 23.3 18.2 75 3.0 SSE 13 20 7 11 1010.6 1010.2 2.2
13/06:30am 22.6 22.5 17.9 75 2.9 S 15 24 8 13 1010.3 1009.9 2.2
13/06:00am 22.1 22.4 17.9 77 2.6 S 13 22 7 12 1010.0 1009.6 2.2
13/05:30am 21.6 22.5 17.6 78 2.5 SSE 9 19 5 10 1009.8 1009.4 2.2
13/05:00am 21.7 22.7 17.7 78 2.5 SSE 9 17 5 9 1009.4 1009.0 2.2
13/04:30am 21.8 22.4 17.8 78 2.5 SSE 11 17 6 9 1009.4 1009.0 2.2
13/04:00am 21.8 22.5 18.0 79 2.4 SSE 11 19 6 10 1009.3 1008.9 2.2
13/03:30am 21.7 22.4 17.9 79 2.4 SSE 11 20 6 11 1009.3 1008.9 2.2
13/03:00am 21.7 22.8 18.1 80 2.2 SSE 9 15 5 8 1009.3 1008.9 2.2
13/02:30am 21.6 22.8 18.2 81 2.1 SSE 9 15 5 8 1009.7 1009.3 2.2
13/02:00am 21.4 23.0 18.2 82 2.0 S 7 11 4 6 1009.9 1009.5 2.2
13/01:30am 21.4 23.2 18.2 82 2.0 SE 6 9 3 5 1010.1 1009.7 2.2
13/01:00am 21.6 23.3 18.4 82 2.0 SSE 7 13 4 7 1010.4 1010.0 2.2
13/12:30am 21.1 22.6 18.1 83 1.9 S 7 9 4 5 1010.9 1010.5 2.2
13/12:00am 21.3 23.0 18.1 82 2.0 S 6 9 3 5 1011.4 1011.0 2.2
 
Date/Time
EST
Temp
°C
App
Temp
°C
Dew
Point
Rel
Hum
%
Delta-T
°C
Wind Press
QNH
hPa
Press
MSL
hPa
Rain
since 9 am
mm
Dir
 
Spd
km/h
Gust
km/h
Spd
kts
Gust
kts
12/11:30pm 21.6 23.2 18.2 81 2.1 S 7 11 4 6 1011.5 1011.1 2.2
12/11:00pm 21.9 23.0 18.1 79 2.4 S 9 13 5 7 1011.7 1011.3 2.2
12/10:30pm 21.9 23.6 18.1 79 2.4 S 6 9 3 5 1012.3 1011.9 2.2
12/10:00pm 22.0 23.5 18.0 78 2.5 S 7 13 4 7 1012.3 1011.9 2.2
12/09:30pm 22.3 23.7 17.9 76 2.7 S 7 11 4 6 1012.7 1012.3 2.2
12/09:00pm 22.1 23.5 17.7 76 2.7 SSE 7 13 4 7 1012.7 1012.3 2.2
12/08:30pm 22.3 23.6 17.0 72 3.3 S 6 9 3 5 1012.4 1012.0 2.2
12/08:00pm 23.1 24.0 16.6 67 4.0 SSE 7 17 4 9 1012.4 1012.0 2.2
12/07:30pm 23.7 23.8 16.5 64 4.4 SSE 11 20 6 11 1012.3 1011.9 2.2
12/07:00pm 24.1 24.6 16.6 63 4.6 SSE 9 15 5 8 1012.1 1011.7 2.2
12/06:30pm 25.0 24.2 16.2 58 5.4 SSE 15 24 8 13 1011.8 1011.4 2.2
12/06:00pm 26.0 25.1 16.8 57 5.7 SSE 17 24 9 13 1011.5 1011.1 2.2
12/05:30pm 26.7 26.1 17.5 57 5.8 SE 17 28 9 15 1011.1 1010.7 2.2
12/05:00pm 27.3 26.3 17.5 55 6.2 SE 19 32 10 17 1011.0 1010.6 2.2
12/04:30pm 27.0 27.1 17.5 56 6.0 SE 13 20 7 11 1010.7 1010.3 2.2
12/04:00pm 27.4 25.7 17.3 54 6.4 SE 22 37 12 20 1010.7 1010.3 2.2
12/03:30pm 27.9 26.9 18.0 55 6.3 SE 20 32 11 17 1010.6 1010.2 2.2
12/03:00pm 27.3 26.2 17.8 56 6.0 SE 20 39 11 21 1010.8 1010.4 2.2
12/02:30pm 27.1 28.2 19.7 64 4.8 SSE 13 26 7 14 1010.7 1010.3 2.2
12/02:00pm 25.3 26.0 19.7 71 3.6 SSE 15 32 8 17 1011.2 1010.8 2.2
12/01:30pm 26.1 28.2 21.7 77 2.9 SSE 13 28 7 15 1011.1 1010.7 2.2
12/01:00pm 27.0 28.1 19.6 64 4.8 SSE 13 19 7 10 1011.1 1010.7 0.0
12/12:30pm 26.3 26.0 19.2 65 4.6 SSE 19 30 10 16 1011.3 1010.9 0.0
12/12:00pm 28.0 27.6 19.0 58 5.8 SE 19 32 10 17 1011.3 1010.9 0.0
12/11:30am 27.9 28.0 18.3 56 6.1 SE 15 33 8 18 1011.6 1011.2 0.0
12/11:00am 28.1 28.3 18.5 56 6.2 SSE 15 22 8 12 1011.8 1011.4 0.0
12/10:30am 28.1 27.9 18.5 56 6.2 SE 17 30 9 16 1012.2 1011.8 0.0
12/10:00am 26.6 26.8 18.5 61 5.2 SE 15 24 8 13 1012.4 1012.0 0.0
12/09:30am 26.0 26.1 18.4 63 4.8 SSE 15 22 8 12 1012.4 1012.0 0.0
12/09:00am 25.5 26.5 19.4 69 3.9 SSE 13 22 7 12 1012.4 1012.0 0.2
12/08:30am 24.2 24.9 19.7 76 2.9 SSE 15 30 8 16 1012.5 1012.1 0.2
12/08:00am 24.2 26.2 19.9 77 2.8 SSE 9 19 5 10 1012.5 1012.1 0.2
12/07:30am 23.2 25.6 19.6 80 2.3 SE 6 9 3 5 1012.5 1012.1 0.2
12/07:00am 22.2 24.2 19.2 83 1.9 SE 7 11 4 6 1012.4 1012.0 0.2
12/06:30am 20.5 23.1 19.2 92 0.8 SE 4 7 2 4 1012.4 1012.0 0.2
12/06:00am 19.2 21.7 18.2 94 0.6 SE 2 6 1 3 1012.3 1011.9 0.2
12/05:30am 18.8 21.2 18.0 95 0.5 SSE 2 4 1 2 1012.0 1011.6 0.2
12/05:00am 18.9 21.3 17.9 94 0.6 SE 2 4 1 2 1011.7 1011.3 0.2
12/04:30am 19.3 21.6 18.5 95 0.5 SE 4 4 2 2 1011.7 1011.3 0.2
12/04:00am 19.3 22.0 18.6 96 0.4 SE 2 2 1 1 1011.6 1011.2 0.2
12/03:30am 18.8 20.9 18.0 95 0.5 S 4 6 2 3 1011.5 1011.1 0.2
12/03:00am 19.4 21.6 18.4 94 0.6 SE 4 4 2 2 1011.6 1011.2 0.2
12/02:30am 19.6 22.7 18.6 94 0.6 CALM 0 0 0 0 1011.8 1011.4 0.2
12/02:00am 19.5 22.1 18.3 93 0.7 SE 2 4 1 2 1011.8 1011.4 0.2
12/01:30am 19.8 22.1 18.6 93 0.7 SE 4 6 2 3 1012.0 1011.6 0.2
12/01:00am 20.2 22.3 18.9 92 0.8 SE 6 7 3 4 1012.1 1011.7 0.2
12/12:30am 20.1 22.3 18.4 90 1.1 SE 4 7 2 4 1012.2 1011.8 0.2
12/12:00am 21.3 23.4 19.0 87 1.5 SE 6 7 3 4 1012.4 1012.0 0.2
 
Date/Time
EST
Temp
°C
App
Temp
°C
Dew
Point
Rel
Hum
%
Delta-T
°C
Wind Press
QNH
hPa
Press
MSL
hPa
Rain
since 9 am
mm
Dir
 
Spd
km/h
Gust
km/h
Spd
kts
Gust
kts
11/11:30pm 21.0 23.0 19.1 89 1.2 SSE 7 11 4 6 1012.5 1012.1 0.2
11/11:00pm 20.9 23.4 19.0 89 1.2 SSE 4 7 2 4 1012.6 1012.2 0.2
11/10:30pm 21.4 24.3 19.1 87 1.5 SSE 2 4 1 2 1012.9 1012.5 0.2
11/10:00pm 21.2 24.1 19.1 88 1.3 SSE 2 4 1 2 1013.1 1012.7 0.2
11/09:30pm 21.2 23.7 19.1 88 1.3 SE 4 6 2 3 1013.1 1012.7 0.2
11/09:00pm 21.2 23.8 19.3 89 1.2 SSE 4 6 2 3 1013.0 1012.6 0.2
11/08:30pm 21.7 24.5 19.6 88 1.3 SSE 4 6 2 3 1013.0 1012.6 0.2
11/08:00pm 22.0 24.7 19.5 86 1.6 SSE 4 4 2 2 1012.9 1012.5 0.2
11/07:30pm 22.3 25.1 19.7 85 1.7 SSE 4 7 2 4 1012.8 1012.4 0.2
11/07:00pm 22.9 25.2 19.5 81 2.2 S 6 9 3 5 1012.6 1012.2 0.2
11/06:30pm 23.4 25.5 19.3 78 2.6 S 7 13 4 7 1012.1 1011.7 0.2
11/06:00pm 23.9 26.7 19.6 77 2.8 SE 4 13 2 7 1011.7 1011.3 0.2
11/05:30pm 24.2 24.1 18.8 72 3.4 ESE 17 30 9 16 1011.5 1011.1 0.2
11/05:00pm 25.3 25.2 18.7 67 4.2 SE 17 33 9 18 1011.4 1011.0 0.2
11/04:30pm 25.7 24.9 18.1 63 4.8 SE 19 30 10 16 1010.9 1010.5 0.2
11/04:00pm 26.4 26.2 18.5 62 5.0 SE 17 32 9 17 1010.7 1010.3 0.2
11/03:30pm 26.6 26.6 19.0 63 4.9 SE 17 33 9 18 1010.4 1010.0 0.2
11/03:00pm 26.1 27.3 20.7 72 3.6 ESE 15 24 8 13 1010.6 1010.2 0.2
11/02:30pm 27.4 27.1 19.2 61 5.3 ESE 19 35 10 19 1010.6 1010.2 0.2
11/02:00pm 28.4 27.7 19.6 59 5.7 E 22 39 12 21 1010.6 1010.2 0.2
11/01:30pm 28.3 28.2 18.7 56 6.2 SE 17 30 9 16 1010.6 1010.2 0.2
11/01:00pm 27.8 28.5 18.8 58 5.8 SE 13 24 7 13 1010.9 1010.5 0.2
11/12:30pm 29.3 30.5 19.9 57 6.2 SSE 13 24 7 13 1011.3 1010.9 0.2
11/12:00pm 27.0 26.7 18.3 59 5.5 SSE 17 28 9 15 1011.7 1011.3 0.2
11/11:30am 27.6 27.7 19.9 63 5.0 SSE 19 32 10 17 1011.8 1011.4 0.2
11/11:00am 26.6 26.8 18.5 61 5.2 SSE 15 26 8 14 1012.0 1011.6 0.2
11/10:30am 26.4 27.6 19.0 63 4.8 SSE 11 22 6 12 1012.3 1011.9 0.2
11/10:00am 26.6 27.9 19.2 64 4.8 SSE 11 17 6 9 1012.3 1011.9 0.2
11/09:30am 25.9 27.5 19.1 66 4.4 SSE 9 17 5 9 1012.4 1012.0 0.0
11/09:00am 25.8 27.8 19.9 70 3.8 SSE 9 17 5 9 1012.4 1012.0 0.2
11/08:30am 25.5 27.3 19.6 70 3.8 SSE 9 17 5 9 1012.5 1012.1 0.2
11/08:00am 24.2 25.3 19.7 76 2.9 SSE 13 24 7 13 1012.4 1012.0 0.2
11/07:30am 23.4 25.5 19.3 78 2.6 SSE 7 11 4 6 1012.2 1011.8 0.2
11/07:00am 21.9 24.0 19.3 85 1.7 SE 7 13 4 7 1012.1 1011.7 0.2
11/06:30am 19.8 22.6 18.8 94 0.6 ENE 2 6 1 3 1011.8 1011.4 0.2
11/06:00am 19.1 22.1 18.4 96 0.4 CALM 0 0 0 0 1011.7 1011.3 0.2
11/05:30am 18.7 21.5 18.0 96 0.4 CALM 0 0 0 0 1011.5 1011.1 0.2
11/05:00am 18.9 21.4 18.2 96 0.4 ENE 2 4 1 2 1011.5 1011.1 0.2
11/04:30am 19.4 22.5 18.7 96 0.4 CALM 0 4 0 2 1011.4 1011.0 0.2
11/04:00am 19.2 21.3 18.2 94 0.6 ESE 4 6 2 3 1011.1 1010.7 0.2
11/03:30am 19.7 22.8 18.7 94 0.6 CALM 0 0 0 0 1011.0 1010.6 0.2
11/03:00am 20.0 23.3 19.0 94 0.6 CALM 0 0 0 0 1011.0 1010.6 0.2
11/02:30am 20.4 23.4 19.2 93 0.8 SE 2 2 1 1 1011.1 1010.7 0.2
11/02:00am 20.4 22.9 19.1 92 0.8 S 4 4 2 2 1011.3 1010.9 0.2
11/01:30am 20.9 23.6 19.4 91 1.0 S 4 7 2 4 1011.6 1011.2 0.2
11/01:00am 21.0 23.3 19.5 91 1.0 SSE 6 9 3 5 1012.0 1011.6 0.2
11/12:30am 21.3 23.6 19.8 91 1.0 S 7 13 4 7 1012.2 1011.8 0.2
11/12:00am 20.8 24.2 19.3 91 1.0 CALM 0 4 0 2 1012.5 1012.1 0.2
 
Date/Time
EST
Temp
°C
App
Temp
°C
Dew
Point
Rel
Hum
%
Delta-T
°C
Wind Press
QNH
hPa
Press
MSL
hPa
Rain
since 9 am
mm
Dir
 
Spd
km/h
Gust
km/h
Spd
kts
Gust
kts
10/11:30pm 21.1 24.1 19.2 89 1.2 S 2 4 1 2 1012.7 1012.3 0.2
10/11:00pm 21.1 24.2 19.4 90 1.1 SSE 2 4 1 2 1013.1 1012.7 0.2
10/10:30pm 21.4 24.3 19.9 91 1.0 SSE 4 6 2 3 1013.4 1013.0 0.2
10/10:00pm 21.3 24.5 19.8 91 1.0 S 2 4 1 2 1013.5 1013.1 0.2
10/09:30pm 21.6 25.2 19.7 89 1.2 CALM 0 0 0 0 1013.4 1013.0 0.2
10/09:00pm 22.1 25.6 19.6 86 1.6 CALM 0 0 0 0 1013.4 1013.0 0.2
10/08:30pm 21.9 24.6 19.5 86 1.5 S 4 6 2 3 1013.2 1012.8 0.2
10/08:00pm 22.1 25.2 19.5 85 1.7 SSE 2 4 1 2 1013.1 1012.7 0.2
10/07:30pm 22.5 25.7 19.7 84 1.8 SE 2 4 1 2 1012.8 1012.4 0.2
10/07:00pm 22.6 24.9 19.4 82 2.0 SSE 6 7 3 4 1012.6 1012.2 0.2

Other Formats:

Comma delimited format used in spreadsheet applications
http://www.bom.gov.au/fwo/IDQ60801/IDQ60801.94566.axf

JavaScript Object Notation format (JSON) in row-major order
http://www.bom.gov.au/fwo/IDQ60801/IDQ60801.94566.json